Mc Connellsburg, Pennsylvania
Current Conditions -  °F | °C
As of 6:53 PM on Sunday 23 Nov 2014 (Local Time) from KHGR Reporting Station
Overcast Overcast  
Wind Chill: 54°   Ceiling: 3900
Heat Index: 54°   Visibility: 10mi
Dew Point: 36°   Wind: 12mph
Humidity: 51%   Direction: 150°SSE
Pressure: 29.99"   Gusts: NA
Location:  39.973°N, 77.9661°W
Report Text: KHGR 232353Z 15010KT 10SM OVC039 12/02 A2999 RMK AO2 SLP166 T01220022 10139 20094 58017
Loading
Personal Weather Stations






























Interactive Weather Map New forecast layout! Learn more

10-Day Weather Forecast

Advertisements
Track Severe Weather on mobile